﻿<?xml version="1.0" encoding="utf-8"?><gpx creator="Garmin Desktop App" version="1.1" xsi:schemaLocation="http://www.topografix.com/GPX/1/1 http://www.topografix.com/GPX/1/1/gpx.xsd http://www.garmin.com/xmlschemas/WaypointExtension/v1 http://www8.garmin.com/xmlschemas/WaypointExtensionv1.xsd http://www.garmin.com/xmlschemas/TrackPointExtension/v1 http://www.garmin.com/xmlschemas/TrackPointExtensionv1.xsd http://www.garmin.com/xmlschemas/GpxExtensions/v3 http://www8.garmin.com/xmlschemas/GpxExtensionsv3.xsd http://www.garmin.com/xmlschemas/ActivityExtension/v1 http://www8.garmin.com/xmlschemas/ActivityExtensionv1.xsd http://www.garmin.com/xmlschemas/AdventuresExtensions/v1 http://www8.garmin.com/xmlschemas/AdventuresExtensionv1.xsd http://www.garmin.com/xmlschemas/PressureExtension/v1 http://www.garmin.com/xmlschemas/PressureExtensionv1.xsd http://www.garmin.com/xmlschemas/TripExtensions/v1 http://www.garmin.com/xmlschemas/TripExtensionsv1.xsd http://www.garmin.com/xmlschemas/TripMetaDataExtensions/v1 http://www.garmin.com/xmlschemas/TripMetaDataExtensionsv1.xsd http://www.garmin.com/xmlschemas/ViaPointTransportationModeExtensions/v1 http://www.garmin.com/xmlschemas/ViaPointTransportationModeExtensionsv1.xsd http://www.garmin.com/xmlschemas/CreationTimeExtension/v1 http://www.garmin.com/xmlschemas/CreationTimeExtensionsv1.xsd http://www.garmin.com/xmlschemas/AccelerationExtension/v1 http://www.garmin.com/xmlschemas/AccelerationExtensionv1.xsd http://www.garmin.com/xmlschemas/PowerExtension/v1 http://www.garmin.com/xmlschemas/PowerExtensionv1.xsd http://www.garmin.com/xmlschemas/VideoExtension/v1 http://www.garmin.com/xmlschemas/VideoExtensionv1.xsd" xmlns="http://www.topografix.com/GPX/1/1" xmlns:xsi="http://www.w3.org/2001/XMLSchema-instance" xmlns:wptx1="http://www.garmin.com/xmlschemas/WaypointExtension/v1" xmlns:gpxtrx="http://www.garmin.com/xmlschemas/GpxExtensions/v3" xmlns:gpxtpx="http://www.garmin.com/xmlschemas/TrackPointExtension/v1" xmlns:gpxx="http://www.garmin.com/xmlschemas/GpxExtensions/v3" xmlns:trp="http://www.garmin.com/xmlschemas/TripExtensions/v1" xmlns:adv="http://www.garmin.com/xmlschemas/AdventuresExtensions/v1" xmlns:prs="http://www.garmin.com/xmlschemas/PressureExtension/v1" xmlns:tmd="http://www.garmin.com/xmlschemas/TripMetaDataExtensions/v1" xmlns:vptm="http://www.garmin.com/xmlschemas/ViaPointTransportationModeExtensions/v1" xmlns:ctx="http://www.garmin.com/xmlschemas/CreationTimeExtension/v1" xmlns:gpxacc="http://www.garmin.com/xmlschemas/AccelerationExtension/v1" xmlns:gpxpx="http://www.garmin.com/xmlschemas/PowerExtension/v1" xmlns:vidx1="http://www.garmin.com/xmlschemas/VideoExtension/v1">

  <metadata>
    <link href="http://www.garmin.com">
      <text>Garmin International</text>
    </link>
    <time>2026-03-25T14:35:13Z</time>
    <bounds maxlat="51.322435028851032" maxlon="6.039273971691728" minlat="51.30631503649056" minlon="5.998336002230644" />
  </metadata>

  <trk>
    <name>20260329 Helden</name>
    <extensions>
      <gpxx:TrackExtension>
        <gpxx:DisplayColor>Blue</gpxx:DisplayColor>
      </gpxx:TrackExtension>
    </extensions>
    <trkseg>
      <trkpt lat="51.321160979568958" lon="5.999449035152793">
        <ele>34.862935</ele>
        <time>2026-02-25T17:02:49Z</time>
      </trkpt>
      <trkpt lat="51.320612970739603" lon="5.999060031026602">
        <ele>34.862935</ele>
        <time>2026-02-25T17:03:37Z</time>
      </trkpt>
      <trkpt lat="51.32056200876832" lon="5.999125996604562">
        <ele>34.862935</ele>
        <time>2026-02-25T17:03:42Z</time>
      </trkpt>
      <trkpt lat="51.320495959371328" lon="5.99912297911942">
        <ele>34.862935</ele>
        <time>2026-02-25T17:03:47Z</time>
      </trkpt>
      <trkpt lat="51.320479027926922" lon="5.999220041558147">
        <ele>34.862935</ele>
        <time>2026-02-25T17:03:52Z</time>
      </trkpt>
      <trkpt lat="51.320450026541948" lon="5.999936023727059">
        <ele>34.695484</ele>
        <time>2026-02-25T17:04:29Z</time>
      </trkpt>
      <trkpt lat="51.320422030985355" lon="6.000542035326362">
        <ele>34.510179999999998</ele>
        <time>2026-02-25T17:04:59Z</time>
      </trkpt>
      <trkpt lat="51.320362016558647" lon="6.000856021419168">
        <ele>34.410049000000001</ele>
        <time>2026-02-25T17:05:16Z</time>
      </trkpt>
      <trkpt lat="51.320265037938952" lon="6.001373017206788">
        <ele>34.245438</ele>
        <time>2026-02-25T17:05:43Z</time>
      </trkpt>
      <trkpt lat="51.320118019357324" lon="6.002460988238454">
        <ele>34.016703</ele>
        <time>2026-02-25T17:06:40Z</time>
      </trkpt>
      <trkpt lat="51.320161018520594" lon="6.002507004886866">
        <ele>34.026699999999998</ele>
        <time>2026-02-25T17:06:44Z</time>
      </trkpt>
      <trkpt lat="51.320254979655147" lon="6.003045039251447">
        <ele>34.094175999999997</ele>
        <time>2026-02-25T17:07:12Z</time>
      </trkpt>
      <trkpt lat="51.320246011018753" lon="6.003144029527903">
        <ele>34.106259999999999</ele>
        <time>2026-02-25T17:07:17Z</time>
      </trkpt>
      <trkpt lat="51.320210974663496" lon="6.003223992884159">
        <ele>34.118056000000003</ele>
        <time>2026-02-25T17:07:22Z</time>
      </trkpt>
      <trkpt lat="51.32013201713562" lon="6.003206977620721">
        <ele>34.133462000000002</ele>
        <time>2026-02-25T17:07:28Z</time>
      </trkpt>
      <trkpt lat="51.320054987445474" lon="6.003736965358257">
        <ele>34.199187000000002</ele>
        <time>2026-02-25T17:07:56Z</time>
      </trkpt>
      <trkpt lat="51.320081977173686" lon="6.003855988383293">
        <ele>34.214478999999997</ele>
        <time>2026-02-25T17:08:03Z</time>
      </trkpt>
      <trkpt lat="51.32004601880908" lon="6.003927988931537">
        <ele>34.225617</ele>
        <time>2026-02-25T17:08:07Z</time>
      </trkpt>
      <trkpt lat="51.320001929998398" lon="6.004106607288122">
        <ele>37.26953125</ele>
      </trkpt>
      <trkpt lat="51.319965971633792" lon="6.004486978054047">
        <ele>34.294885999999998</ele>
        <time>2026-02-25T17:08:37Z</time>
      </trkpt>
      <trkpt lat="51.319949962198734" lon="6.004733992740512">
        <ele>34.324880999999998</ele>
        <time>2026-02-25T17:08:49Z</time>
      </trkpt>
      <trkpt lat="51.319973012432456" lon="6.005150992423296">
        <ele>34.256297000000004</ele>
        <time>2026-02-25T17:09:10Z</time>
      </trkpt>
      <trkpt lat="51.320019029080868" lon="6.005525998771191">
        <ele>34.173126000000003</ele>
        <time>2026-02-25T17:09:30Z</time>
      </trkpt>
      <trkpt lat="51.320078037679195" lon="6.006218008697033">
        <ele>34.021127</ele>
        <time>2026-02-25T17:10:05Z</time>
      </trkpt>
      <trkpt lat="51.320079965516925" lon="6.006451025605202">
        <ele>33.970413999999998</ele>
        <time>2026-02-25T17:10:17Z</time>
      </trkpt>
      <trkpt lat="51.320072002708912" lon="6.006643977016211">
        <ele>33.928317999999997</ele>
        <time>2026-02-25T17:10:26Z</time>
      </trkpt>
      <trkpt lat="51.320056999102235" lon="6.006867019459605">
        <ele>33.879505000000002</ele>
        <time>2026-02-25T17:10:38Z</time>
      </trkpt>
      <trkpt lat="51.319699008017778" lon="6.008471986278892">
        <ele>33.710622999999998</ele>
        <time>2026-02-25T17:12:05Z</time>
      </trkpt>
      <trkpt lat="51.319648968055844" lon="6.008817991241813">
        <ele>33.712204999999997</ele>
        <time>2026-02-25T17:12:22Z</time>
      </trkpt>
      <trkpt lat="51.31910196505487" lon="6.008826959878206">
        <ele>33.716104000000001</ele>
        <time>2026-02-25T17:13:07Z</time>
      </trkpt>
      <trkpt lat="51.319061983376741" lon="6.009833961725235">
        <ele>33.776699999999998</ele>
        <time>2026-02-25T17:13:59Z</time>
      </trkpt>
      <trkpt lat="51.318942960351706" lon="6.00982298143208">
        <ele>33.817022000000001</ele>
        <time>2026-02-25T17:14:08Z</time>
      </trkpt>
      <trkpt lat="51.318852016702294" lon="6.009918032214046">
        <ele>33.853779000000003</ele>
        <time>2026-02-25T17:14:17Z</time>
      </trkpt>
      <trkpt lat="51.318835001438856" lon="6.00995197892189">
        <ele>33.862983999999997</ele>
        <time>2026-02-25T17:14:19Z</time>
      </trkpt>
      <trkpt lat="51.318231001496315" lon="6.011385032907128">
        <ele>34.228413000000003</ele>
        <time>2026-02-25T17:15:47Z</time>
      </trkpt>
      <trkpt lat="51.318213986232877" lon="6.011470025405288">
        <ele>34.247281000000001</ele>
        <time>2026-02-25T17:15:51Z</time>
      </trkpt>
      <trkpt lat="51.318243993446231" lon="6.011587958782911">
        <ele>34.274214999999998</ele>
        <time>2026-02-25T17:15:58Z</time>
      </trkpt>
      <trkpt lat="51.31817601621151" lon="6.011719973757863">
        <ele>34.310381</ele>
        <time>2026-02-25T17:16:06Z</time>
      </trkpt>
      <trkpt lat="51.317998990416527" lon="6.012258008122444">
        <ele>34.384906999999998</ele>
        <time>2026-02-25T17:16:37Z</time>
      </trkpt>
      <trkpt lat="51.31772599183023" lon="6.012977007776499">
        <ele>34.476283000000002</ele>
        <time>2026-02-25T17:17:19Z</time>
      </trkpt>
      <trkpt lat="51.317623984068632" lon="6.01323701441288">
        <ele>34.509625</ele>
        <time>2026-02-25T17:17:35Z</time>
      </trkpt>
      <trkpt lat="51.317887008190155" lon="6.013850988820195">
        <ele>34.590473000000003</ele>
        <time>2026-02-25T17:18:12Z</time>
      </trkpt>
      <trkpt lat="51.31811399012804" lon="6.014325991272926">
        <ele>34.634039000000001</ele>
        <time>2026-02-25T17:18:42Z</time>
      </trkpt>
      <trkpt lat="51.318194037303329" lon="6.014330014586449">
        <ele>34.628127999999997</ele>
        <time>2026-02-25T17:18:49Z</time>
      </trkpt>
      <trkpt lat="51.318223038688302" lon="6.014362033456564">
        <ele>34.625526000000001</ele>
        <time>2026-02-25T17:18:52Z</time>
      </trkpt>
      <trkpt lat="51.318258997052908" lon="6.014486001804471">
        <ele>34.619214999999997</ele>
        <time>2026-02-25T17:18:58Z</time>
      </trkpt>
      <trkpt lat="51.31832798011601" lon="6.015647985041142">
        <ele>34.565336000000002</ele>
        <time>2026-02-25T17:19:57Z</time>
      </trkpt>
      <trkpt lat="51.318347007036209" lon="6.015970017760992">
        <ele>34.550407</ele>
        <time>2026-02-25T17:20:13Z</time>
      </trkpt>
      <trkpt lat="51.318383971229196" lon="6.016437979415059">
        <ele>34.528632000000002</ele>
        <time>2026-02-25T17:20:37Z</time>
      </trkpt>
      <trkpt lat="51.318393023684621" lon="6.017033010721207">
        <ele>34.483991000000003</ele>
        <time>2026-02-25T17:21:07Z</time>
      </trkpt>
      <trkpt lat="51.318353964015841" lon="6.017661988735199">
        <ele>34.376742</ele>
        <time>2026-02-25T17:21:38Z</time>
      </trkpt>
      <trkpt lat="51.318292021751404" lon="6.017915038391948">
        <ele>34.330632000000001</ele>
        <time>2026-02-25T17:21:52Z</time>
      </trkpt>
      <trkpt lat="51.318281963467598" lon="6.017954014241695">
        <ele>34.323478999999999</ele>
        <time>2026-02-25T17:21:54Z</time>
      </trkpt>
      <trkpt lat="51.318053975701332" lon="6.018516020849347">
        <ele>34.209794000000002</ele>
        <time>2026-02-25T17:22:28Z</time>
      </trkpt>
      <trkpt lat="51.317953979596496" lon="6.019052965566516">
        <ele>34.114719999999998</ele>
        <time>2026-02-25T17:22:56Z</time>
      </trkpt>
      <trkpt lat="51.317847026512027" lon="6.019932981580496">
        <ele>33.984450000000002</ele>
        <time>2026-02-25T17:23:41Z</time>
      </trkpt>
      <trkpt lat="51.317819030955434" lon="6.02037001401186">
        <ele>33.938645000000001</ele>
        <time>2026-02-25T17:24:04Z</time>
      </trkpt>
      <trkpt lat="51.317837974056602" lon="6.021047020331025">
        <ele>33.867984</ele>
        <time>2026-02-25T17:24:38Z</time>
      </trkpt>
      <trkpt lat="51.317846020683646" lon="6.02133703418076">
        <ele>33.837716</ele>
        <time>2026-02-25T17:24:52Z</time>
      </trkpt>
      <trkpt lat="51.317848032340407" lon="6.02140199393034">
        <ele>33.830930000000002</ele>
        <time>2026-02-25T17:24:55Z</time>
      </trkpt>
      <trkpt lat="51.318815974518657" lon="6.021335022523999">
        <ele>33.722665999999997</ele>
        <time>2026-02-25T17:26:13Z</time>
      </trkpt>
      <trkpt lat="51.319325007498264" lon="6.021299986168742">
        <ele>33.728561999999997</ele>
        <time>2026-02-25T17:26:54Z</time>
      </trkpt>
      <trkpt lat="51.319388961419463" lon="6.021371986716986">
        <ele>33.729467</ele>
        <time>2026-02-25T17:27:00Z</time>
      </trkpt>
      <trkpt lat="51.319441013038158" lon="6.021516993641853">
        <ele>33.730676000000003</ele>
        <time>2026-02-25T17:27:09Z</time>
      </trkpt>
      <trkpt lat="51.319420980289578" lon="6.022460963577032">
        <ele>33.737506000000003</ele>
        <time>2026-02-25T17:27:56Z</time>
      </trkpt>
      <trkpt lat="51.319485018029809" lon="6.023437958210707">
        <ele>33.642909000000003</ele>
        <time>2026-02-25T17:28:45Z</time>
      </trkpt>
      <trkpt lat="51.319527011364698" lon="6.023598974570632">
        <ele>33.616239999999998</ele>
        <time>2026-02-25T17:28:54Z</time>
      </trkpt>
      <trkpt lat="51.319687021896243" lon="6.023997031152248">
        <ele>33.543900999999998</ele>
        <time>2026-02-25T17:29:18Z</time>
      </trkpt>
      <trkpt lat="51.319671012461185" lon="6.02462500333786">
        <ele>33.447823999999997</ele>
        <time>2026-02-25T17:29:50Z</time>
      </trkpt>
      <trkpt lat="51.319692973047495" lon="6.024673031643033">
        <ele>33.438724999999998</ele>
        <time>2026-02-25T17:29:53Z</time>
      </trkpt>
      <trkpt lat="51.319749969989061" lon="6.024802029132843">
        <ele>33.414574999999999</ele>
        <time>2026-02-25T17:30:01Z</time>
      </trkpt>
      <trkpt lat="51.319891959428787" lon="6.024870006367564">
        <ele>33.378321</ele>
        <time>2026-02-25T17:30:13Z</time>
      </trkpt>
      <trkpt lat="51.319996984675527" lon="6.024845028296113">
        <ele>33.352356</ele>
        <time>2026-02-25T17:30:21Z</time>
      </trkpt>
      <trkpt lat="51.320008970797062" lon="6.024778978899121">
        <ele>33.341849000000003</ele>
        <time>2026-02-25T17:30:25Z</time>
      </trkpt>
      <trkpt lat="51.320026991888881" lon="6.024654004722834">
        <ele>33.322240999999998</ele>
        <time>2026-02-25T17:30:31Z</time>
      </trkpt>
      <trkpt lat="51.320252967998385" lon="6.024551996961236">
        <ele>33.306275999999997</ele>
        <time>2026-02-25T17:30:50Z</time>
      </trkpt>
      <trkpt lat="51.322085000574589" lon="6.023920001462102">
        <ele>33.377848999999998</ele>
        <time>2026-02-25T17:33:21Z</time>
      </trkpt>
      <trkpt lat="51.322323968634009" lon="6.025293963029981">
        <ele>33.380254000000001</ele>
        <time>2026-02-25T17:34:32Z</time>
      </trkpt>
      <trkpt lat="51.322435028851032" lon="6.025929981842637">
        <ele>33.381368000000002</ele>
        <time>2026-02-25T17:35:05Z</time>
      </trkpt>
      <trkpt lat="51.322192959487438" lon="6.027473006397486">
        <ele>33.221254000000002</ele>
        <time>2026-02-25T17:36:25Z</time>
      </trkpt>
      <trkpt lat="51.322327991947532" lon="6.028843028470874">
        <ele>33.027400999999998</ele>
        <time>2026-02-25T17:37:35Z</time>
      </trkpt>
      <trkpt lat="51.322331009432673" lon="6.028923997655511">
        <ele>33.016060000000003</ele>
        <time>2026-02-25T17:37:39Z</time>
      </trkpt>
      <trkpt lat="51.322347018867731" lon="6.029353989288211">
        <ele>32.942050000000002</ele>
        <time>2026-02-25T17:38:01Z</time>
      </trkpt>
      <trkpt lat="51.321789035573602" lon="6.030043987557292">
        <ele>32.693548999999997</ele>
        <time>2026-02-25T17:38:58Z</time>
      </trkpt>
      <trkpt lat="51.321616033092141" lon="6.030560983344913">
        <ele>32.564400999999997</ele>
        <time>2026-02-25T17:39:28Z</time>
      </trkpt>
      <trkpt lat="51.321522993966937" lon="6.03072501718998">
        <ele>32.515633000000001</ele>
        <time>2026-02-25T17:39:39Z</time>
      </trkpt>
      <trkpt lat="51.321372035890818" lon="6.031149979680777">
        <ele>32.407971000000003</ele>
        <time>2026-02-25T17:40:03Z</time>
      </trkpt>
      <trkpt lat="51.321321995928884" lon="6.031226003542543">
        <ele>32.383668999999998</ele>
        <time>2026-02-25T17:40:09Z</time>
      </trkpt>
      <trkpt lat="51.321273967623711" lon="6.031286017969251">
        <ele>32.362206</ele>
        <time>2026-02-25T17:40:14Z</time>
      </trkpt>
      <trkpt lat="51.321080010384321" lon="6.031391965225339">
        <ele>32.330390999999999</ele>
        <time>2026-02-25T17:40:30Z</time>
      </trkpt>
      <trkpt lat="51.32084003649652" lon="6.03145600296557">
        <ele>32.306483999999998</ele>
        <time>2026-02-25T17:40:50Z</time>
      </trkpt>
      <trkpt lat="51.320427982136607" lon="6.031812988221645">
        <ele>32.260446999999999</ele>
        <time>2026-02-25T17:41:27Z</time>
      </trkpt>
      <trkpt lat="51.320307031273842" lon="6.031905021518469">
        <ele>32.247284000000001</ele>
        <time>2026-02-25T17:41:38Z</time>
      </trkpt>
      <trkpt lat="51.320271994918585" lon="6.031932011246681">
        <ele>32.243465999999998</ele>
        <time>2026-02-25T17:41:41Z</time>
      </trkpt>
      <trkpt lat="51.319676963612437" lon="6.03298201225698">
        <ele>32.022368999999998</ele>
        <time>2026-02-25T17:42:53Z</time>
      </trkpt>
      <trkpt lat="51.31957302801311" lon="6.033525997772813">
        <ele>31.6233</ele>
        <time>2026-02-25T17:43:22Z</time>
      </trkpt>
      <trkpt lat="51.319451993331313" lon="6.033582994714379">
        <ele>31.481721</ele>
        <time>2026-02-25T17:43:32Z</time>
      </trkpt>
      <trkpt lat="51.31938099861145" lon="6.033658012747765">
        <ele>31.386227000000002</ele>
        <time>2026-02-25T17:43:39Z</time>
      </trkpt>
      <trkpt lat="51.319286031648517" lon="6.033826991915703">
        <ele>31.226773000000001</ele>
        <time>2026-02-25T17:43:51Z</time>
      </trkpt>
      <trkpt lat="51.319235991686583" lon="6.034075012430549">
        <ele>31.043972</ele>
        <time>2026-02-25T17:44:04Z</time>
      </trkpt>
      <trkpt lat="51.319205984473228" lon="6.034601982682943">
        <ele>30.672749</ele>
        <time>2026-02-25T17:44:32Z</time>
      </trkpt>
      <trkpt lat="51.319100959226489" lon="6.035169018432498">
        <ele>30.257902000000001</ele>
        <time>2026-02-25T17:45:02Z</time>
      </trkpt>
      <trkpt lat="51.319105988368392" lon="6.035313019528985">
        <ele>30.15673</ele>
        <time>2026-02-25T17:45:10Z</time>
      </trkpt>
      <trkpt lat="51.319195004180074" lon="6.03575499728322">
        <ele>30.121649999999999</ele>
        <time>2026-02-25T17:45:33Z</time>
      </trkpt>
      <trkpt lat="51.319201961159706" lon="6.035917019471526">
        <ele>30.11139</ele>
        <time>2026-02-25T17:45:41Z</time>
      </trkpt>
      <trkpt lat="51.319162985309958" lon="6.036085998639464">
        <ele>30.100007999999999</ele>
        <time>2026-02-25T17:45:51Z</time>
      </trkpt>
      <trkpt lat="51.319077992811799" lon="6.036240980029106">
        <ele>30.086980000000001</ele>
        <time>2026-02-25T17:46:01Z</time>
      </trkpt>
      <trkpt lat="51.319034993648529" lon="6.036413982510567">
        <ele>30.075216999999999</ele>
        <time>2026-02-25T17:46:10Z</time>
      </trkpt>
      <trkpt lat="51.319017978385091" lon="6.036950005218387">
        <ele>30.041308999999998</ele>
        <time>2026-02-25T17:46:37Z</time>
      </trkpt>
      <trkpt lat="51.318899039179087" lon="6.037180004641414">
        <ele>30.022445000000001</ele>
        <time>2026-02-25T17:46:52Z</time>
      </trkpt>
      <trkpt lat="51.318605002015829" lon="6.037160977721214">
        <ele>29.992699999999999</ele>
        <time>2026-02-25T17:47:16Z</time>
      </trkpt>
      <trkpt lat="51.318436022847891" lon="6.037786016240716">
        <ele>30.055817000000001</ele>
        <time>2026-02-25T17:47:51Z</time>
      </trkpt>
      <trkpt lat="51.318316999822855" lon="6.038050968199968">
        <ele>30.150859000000001</ele>
        <time>2026-02-25T17:48:08Z</time>
      </trkpt>
      <trkpt lat="51.31807099096477" lon="6.038428992033005">
        <ele>30.309805999999998</ele>
        <time>2026-02-25T17:48:36Z</time>
      </trkpt>
      <trkpt lat="51.317820958793163" lon="6.039273971691728">
        <ele>30.582108000000002</ele>
        <time>2026-02-25T17:49:23Z</time>
      </trkpt>
      <trkpt lat="51.31753496825695" lon="6.039059981703758">
        <ele>30.729246</ele>
        <time>2026-02-25T17:49:49Z</time>
      </trkpt>
      <trkpt lat="51.317498004063964" lon="6.039031986147165">
        <ele>30.74832</ele>
        <time>2026-02-25T17:49:52Z</time>
      </trkpt>
      <trkpt lat="51.317043034359813" lon="6.038786983117461">
        <ele>30.96687</ele>
        <time>2026-02-25T17:50:31Z</time>
      </trkpt>
      <trkpt lat="51.31693197414279" lon="6.038662008941174">
        <ele>31.028146</ele>
        <time>2026-02-25T17:50:42Z</time>
      </trkpt>
      <trkpt lat="51.316814962774515" lon="6.038501998409629">
        <ele>31.097626000000002</ele>
        <time>2026-02-25T17:50:55Z</time>
      </trkpt>
      <trkpt lat="51.315807960927486" lon="6.036788988858461">
        <ele>31.648676999999999</ele>
        <time>2026-02-25T17:52:54Z</time>
      </trkpt>
      <trkpt lat="51.31574803031981" lon="6.036726962774992">
        <ele>31.655452</ele>
        <time>2026-02-25T17:53:00Z</time>
      </trkpt>
      <trkpt lat="51.315720034763217" lon="6.036627972498536">
        <ele>31.661895000000001</ele>
        <time>2026-02-25T17:53:06Z</time>
      </trkpt>
      <trkpt lat="51.315446030348539" lon="6.036203010007739">
        <ele>31.698096</ele>
        <time>2026-02-25T17:53:36Z</time>
      </trkpt>
      <trkpt lat="51.315247965976596" lon="6.035888018086553">
        <ele>31.724584</ele>
        <time>2026-02-25T17:53:59Z</time>
      </trkpt>
      <trkpt lat="51.315058032050729" lon="6.035607978701592">
        <ele>31.749088</ele>
        <time>2026-02-25T17:54:19Z</time>
      </trkpt>
      <trkpt lat="51.313467985019088" lon="6.033169012516737">
        <ele>31.428826999999998</ele>
        <time>2026-02-25T17:57:17Z</time>
      </trkpt>
      <trkpt lat="51.312748985365033" lon="6.032109959051013">
        <ele>31.507876</ele>
        <time>2026-02-25T17:58:35Z</time>
      </trkpt>
      <trkpt lat="51.312433993443847" lon="6.031618025153875">
        <ele>31.546174000000001</ele>
        <time>2026-02-25T17:59:10Z</time>
      </trkpt>
      <trkpt lat="51.312050018459558" lon="6.031019976362586">
        <ele>31.636002000000001</ele>
        <time>2026-02-25T17:59:54Z</time>
      </trkpt>
      <trkpt lat="51.31293497979641" lon="6.030283961445093">
        <ele>32.043970999999999</ele>
        <time>2026-02-25T18:01:15Z</time>
      </trkpt>
      <trkpt lat="51.312712021172047" lon="6.029794039204717">
        <ele>32.198932999999997</ele>
        <time>2026-02-25T18:01:46Z</time>
      </trkpt>
      <trkpt lat="51.312661981210113" lon="6.029624976217747">
        <ele>32.246735999999999</ele>
        <time>2026-02-25T18:01:56Z</time>
      </trkpt>
      <trkpt lat="51.312595009803772" lon="6.029057018458843">
        <ele>32.223278000000001</ele>
        <time>2026-02-25T18:02:25Z</time>
      </trkpt>
      <trkpt lat="51.312542036175728" lon="6.028963979333639">
        <ele>32.184559999999998</ele>
        <time>2026-02-25T18:02:31Z</time>
      </trkpt>
      <trkpt lat="51.312039038166404" lon="6.027952032163739">
        <ele>31.786791999999998</ele>
        <time>2026-02-25T18:03:36Z</time>
      </trkpt>
      <trkpt lat="51.311594964936376" lon="6.026903036981821">
        <ele>31.407706000000001</ele>
        <time>2026-02-25T18:04:41Z</time>
      </trkpt>
      <trkpt lat="51.311092972755432" lon="6.025819005444646">
        <ele>31.120926999999998</ele>
        <time>2026-02-25T18:05:50Z</time>
      </trkpt>
      <trkpt lat="51.311067994683981" lon="6.025765025988221">
        <ele>31.106642000000001</ele>
        <time>2026-02-25T18:05:53Z</time>
      </trkpt>
      <trkpt lat="51.310792984440923" lon="6.025171000510454">
        <ele>30.949511000000001</ele>
        <time>2026-02-25T18:06:30Z</time>
      </trkpt>
      <trkpt lat="51.310531971976161" lon="6.024609999731183">
        <ele>30.857379000000002</ele>
        <time>2026-02-25T18:07:06Z</time>
      </trkpt>
      <trkpt lat="51.310503976419568" lon="6.024549985304475">
        <ele>30.888739999999999</ele>
        <time>2026-02-25T18:07:10Z</time>
      </trkpt>
      <trkpt lat="51.3107889611274" lon="6.02425703778863">
        <ele>31.115728000000001</ele>
        <time>2026-02-25T18:07:38Z</time>
      </trkpt>
      <trkpt lat="51.31093799136579" lon="6.02425703778863">
        <ele>31.215561000000001</ele>
        <time>2026-02-25T18:07:50Z</time>
      </trkpt>
      <trkpt lat="51.311175031587481" lon="6.023917989805341">
        <ele>31.428574000000001</ele>
        <time>2026-02-25T18:08:16Z</time>
      </trkpt>
      <trkpt lat="51.311298999935389" lon="6.023672986775637">
        <ele>31.560604000000001</ele>
        <time>2026-02-25T18:08:33Z</time>
      </trkpt>
      <trkpt lat="51.311663025990129" lon="6.02342002093792">
        <ele>31.826516000000002</ele>
        <time>2026-02-25T18:09:05Z</time>
      </trkpt>
      <trkpt lat="51.311781965196133" lon="6.023294040933251">
        <ele>31.922129999999999</ele>
        <time>2026-02-25T18:09:17Z</time>
      </trkpt>
      <trkpt lat="51.31188003346324" lon="6.023117015138269">
        <ele>32.021160000000002</ele>
        <time>2026-02-25T18:09:29Z</time>
      </trkpt>
      <trkpt lat="51.312071979045868" lon="6.023043002933264">
        <ele>32.089385</ele>
        <time>2026-02-25T18:09:45Z</time>
      </trkpt>
      <trkpt lat="51.312284041196108" lon="6.02286396548152">
        <ele>32.169862999999999</ele>
        <time>2026-02-25T18:10:05Z</time>
      </trkpt>
      <trkpt lat="51.312010958790779" lon="6.022408995777369">
        <ele>32.302214999999997</ele>
        <time>2026-02-25T18:10:37Z</time>
      </trkpt>
      <trkpt lat="51.311944993212819" lon="6.022232975810766">
        <ele>32.345286000000002</ele>
        <time>2026-02-25T18:10:47Z</time>
      </trkpt>
      <trkpt lat="51.311832005158067" lon="6.02193902246654">
        <ele>32.417712999999999</ele>
        <time>2026-02-25T18:11:04Z</time>
      </trkpt>
      <trkpt lat="51.311739971861243" lon="6.021859981119633">
        <ele>32.452767999999999</ele>
        <time>2026-02-25T18:11:13Z</time>
      </trkpt>
      <trkpt lat="51.311512989923358" lon="6.021395958960056">
        <ele>32.576417999999997</ele>
        <time>2026-02-25T18:11:42Z</time>
      </trkpt>
      <trkpt lat="51.311353985220194" lon="6.021075015887618">
        <ele>32.659632000000002</ele>
        <time>2026-02-25T18:12:03Z</time>
      </trkpt>
      <trkpt lat="51.312330979853868" lon="6.019257986918092">
        <ele>33.121541000000001</ele>
        <time>2026-02-25T18:14:04Z</time>
      </trkpt>
      <trkpt lat="51.312586041167378" lon="6.018529012799263">
        <ele>33.384132000000001</ele>
        <time>2026-02-25T18:14:47Z</time>
      </trkpt>
      <trkpt lat="51.312734987586737" lon="6.018190970644355">
        <ele>33.545532999999999</ele>
        <time>2026-02-25T18:15:08Z</time>
      </trkpt>
      <trkpt lat="51.312980996444821" lon="6.017728038132191">
        <ele>33.782663999999997</ele>
        <time>2026-02-25T18:15:39Z</time>
      </trkpt>
      <trkpt lat="51.31321300752461" lon="6.017291005700827">
        <ele>34.006402999999999</ele>
        <time>2026-02-25T18:16:09Z</time>
      </trkpt>
      <trkpt lat="51.313595976680517" lon="6.016493970528245">
        <ele>34.260505000000002</ele>
        <time>2026-02-25T18:17:00Z</time>
      </trkpt>
      <trkpt lat="51.313775014132261" lon="6.01609499193728">
        <ele>34.165489999999998</ele>
        <time>2026-02-25T18:17:25Z</time>
      </trkpt>
      <trkpt lat="51.314123030751944" lon="6.015428965911269">
        <ele>33.997556000000003</ele>
        <time>2026-02-25T18:18:09Z</time>
      </trkpt>
      <trkpt lat="51.314296033233404" lon="6.01512897759676">
        <ele>33.918590999999999</ele>
        <time>2026-02-25T18:18:29Z</time>
      </trkpt>
      <trkpt lat="51.314311036840081" lon="6.015061000362039">
        <ele>33.904640999999998</ele>
        <time>2026-02-25T18:18:33Z</time>
      </trkpt>
      <trkpt lat="51.31422596052289" lon="6.014869976788759">
        <ele>33.859282</ele>
        <time>2026-02-25T18:18:45Z</time>
      </trkpt>
      <trkpt lat="51.314173992723227" lon="6.014824965968728">
        <ele>33.840983999999999</ele>
        <time>2026-02-25T18:18:50Z</time>
      </trkpt>
      <trkpt lat="51.313835028558969" lon="6.013866998255253">
        <ele>33.681797000000003</ele>
        <time>2026-02-25T18:19:45Z</time>
      </trkpt>
      <trkpt lat="51.313822036609054" lon="6.013745041564107">
        <ele>33.668444999999998</ele>
        <time>2026-02-25T18:19:52Z</time>
      </trkpt>
      <trkpt lat="51.313787000253797" lon="6.013529039919376">
        <ele>33.644370000000002</ele>
        <time>2026-02-25T18:20:03Z</time>
      </trkpt>
      <trkpt lat="51.313672000542283" lon="6.013289988040924">
        <ele>33.611828000000003</ele>
        <time>2026-02-25T18:20:18Z</time>
      </trkpt>
      <trkpt lat="51.31224699318409" lon="6.012865025550127">
        <ele>33.468446</ele>
        <time>2026-02-25T18:22:14Z</time>
      </trkpt>
      <trkpt lat="51.312169963493943" lon="6.012797970324755">
        <ele>33.474162999999997</ele>
        <time>2026-02-25T18:22:22Z</time>
      </trkpt>
      <trkpt lat="51.312120007351041" lon="6.012750025838614">
        <ele>33.477967</ele>
        <time>2026-02-25T18:22:26Z</time>
      </trkpt>
      <trkpt lat="51.31199000403285" lon="6.012599989771843">
        <ele>33.488421000000002</ele>
        <time>2026-02-25T18:22:39Z</time>
      </trkpt>
      <trkpt lat="51.311824964359403" lon="6.012666039168835">
        <ele>33.499515000000002</ele>
        <time>2026-02-25T18:22:53Z</time>
      </trkpt>
      <trkpt lat="51.311777019873261" lon="6.012684982270002">
        <ele>33.502740000000003</ele>
        <time>2026-02-25T18:22:57Z</time>
      </trkpt>
      <trkpt lat="51.311593037098646" lon="6.012697974219918">
        <ele>33.514752999999999</ele>
        <time>2026-02-25T18:23:12Z</time>
      </trkpt>
      <trkpt lat="51.311201015487313" lon="6.013025958091021">
        <ele>33.543607999999999</ele>
        <time>2026-02-25T18:23:47Z</time>
      </trkpt>
      <trkpt lat="51.310714026913047" lon="6.013632975518704">
        <ele>33.730186000000003</ele>
        <time>2026-02-25T18:24:38Z</time>
      </trkpt>
      <trkpt lat="51.309895031154156" lon="6.014073025435209">
        <ele>34.087347000000001</ele>
        <time>2026-02-25T18:25:49Z</time>
      </trkpt>
      <trkpt lat="51.309352973476052" lon="6.014771992340684">
        <ele>34.176468999999997</ele>
        <time>2026-02-25T18:26:45Z</time>
      </trkpt>
      <trkpt lat="51.308112032711506" lon="6.017143987119198">
        <ele>32.817295999999999</ele>
        <time>2026-02-25T18:29:22Z</time>
      </trkpt>
      <trkpt lat="51.307189017534256" lon="6.015585036948323">
        <ele>31.716397000000001</ele>
        <time>2026-02-25T18:31:12Z</time>
      </trkpt>
      <trkpt lat="51.30631503649056" lon="6.014106972143054">
        <ele>31.239637999999999</ele>
        <time>2026-02-25T18:32:55Z</time>
      </trkpt>
      <trkpt lat="51.306367004290223" lon="6.014004964381456">
        <ele>31.213315000000001</ele>
        <time>2026-02-25T18:33:01Z</time>
      </trkpt>
      <trkpt lat="51.307480037212372" lon="6.01181703619659">
        <ele>31.326523999999999</ele>
        <time>2026-02-25T18:35:23Z</time>
      </trkpt>
      <trkpt lat="51.307277027517557" lon="6.011256035417318">
        <ele>31.429646999999999</ele>
        <time>2026-02-25T18:35:56Z</time>
      </trkpt>
      <trkpt lat="51.30728499032557" lon="6.011194009333849">
        <ele>31.439717999999999</ele>
        <time>2026-02-25T18:35:59Z</time>
      </trkpt>
      <trkpt lat="51.307334024459124" lon="6.011147992685437">
        <ele>31.454177000000001</ele>
        <time>2026-02-25T18:36:04Z</time>
      </trkpt>
      <trkpt lat="51.307955039665103" lon="6.010856973007321">
        <ele>31.833656000000001</ele>
        <time>2026-02-25T18:36:57Z</time>
      </trkpt>
      <trkpt lat="51.308195013552904" lon="6.010640971362591">
        <ele>32.015489000000002</ele>
        <time>2026-02-25T18:37:19Z</time>
      </trkpt>
      <trkpt lat="51.308274976909161" lon="6.010564025491476">
        <ele>32.077137999999998</ele>
        <time>2026-02-25T18:37:27Z</time>
      </trkpt>
      <trkpt lat="51.308482009917498" lon="6.0102519672364">
        <ele>32.264935999999999</ele>
        <time>2026-02-25T18:37:50Z</time>
      </trkpt>
      <trkpt lat="51.308930022642016" lon="6.009453004226089">
        <ele>32.714440000000003</ele>
        <time>2026-02-25T18:38:45Z</time>
      </trkpt>
      <trkpt lat="51.309158010408282" lon="6.009070035070181">
        <ele>32.971806000000001</ele>
        <time>2026-02-25T18:39:13Z</time>
      </trkpt>
      <trkpt lat="51.309227999299765" lon="6.008968027308583">
        <ele>33.045515000000002</ele>
        <time>2026-02-25T18:39:21Z</time>
      </trkpt>
      <trkpt lat="51.309623960405588" lon="6.008387999609113">
        <ele>33.463469000000003</ele>
        <time>2026-02-25T18:40:05Z</time>
      </trkpt>
      <trkpt lat="51.309984968975186" lon="6.00788801908493">
        <ele>33.835180999999999</ele>
        <time>2026-02-25T18:40:45Z</time>
      </trkpt>
      <trkpt lat="51.310049006715417" lon="6.007725996896625">
        <ele>33.928435999999998</ele>
        <time>2026-02-25T18:40:54Z</time>
      </trkpt>
      <trkpt lat="51.310170963406563" lon="6.007535979151726">
        <ele>34.060979000000003</ele>
        <time>2026-02-25T18:41:08Z</time>
      </trkpt>
      <trkpt lat="51.310393000021577" lon="6.00720196031034">
        <ele>34.113351999999999</ele>
        <time>2026-02-25T18:41:33Z</time>
      </trkpt>
      <trkpt lat="51.310783009976149" lon="6.006714971736074">
        <ele>34.183821000000002</ele>
        <time>2026-02-25T18:42:12Z</time>
      </trkpt>
      <trkpt lat="51.311364965513349" lon="6.006243992596865">
        <ele>34.276721000000002</ele>
        <time>2026-02-25T18:43:05Z</time>
      </trkpt>
      <trkpt lat="51.311826976016164" lon="6.005230033770204">
        <ele>34.366810999999998</ele>
        <time>2026-02-25T18:44:08Z</time>
      </trkpt>
      <trkpt lat="51.311826976016164" lon="6.005171025171876">
        <ele>34.370179999999998</ele>
        <time>2026-02-25T18:44:11Z</time>
      </trkpt>
      <trkpt lat="51.311849020421505" lon="6.005084021016955">
        <ele>34.375539000000003</ele>
        <time>2026-02-25T18:44:16Z</time>
      </trkpt>
      <trkpt lat="51.312632979825139" lon="6.004339037463069">
        <ele>34.458837000000003</ele>
        <time>2026-02-25T18:45:29Z</time>
      </trkpt>
      <trkpt lat="51.312824003398418" lon="6.004095040261746">
        <ele>34.481164</ele>
        <time>2026-02-25T18:45:49Z</time>
      </trkpt>
      <trkpt lat="51.313086021691561" lon="6.003597993403673">
        <ele>34.366286000000002</ele>
        <time>2026-02-25T18:46:22Z</time>
      </trkpt>
      <trkpt lat="51.313285008072853" lon="6.00309700705111">
        <ele>34.200836000000002</ele>
        <time>2026-02-25T18:46:52Z</time>
      </trkpt>
      <trkpt lat="51.313377041369677" lon="6.00290397182107">
        <ele>34.133184</ele>
        <time>2026-02-25T18:47:04Z</time>
      </trkpt>
      <trkpt lat="51.313420962542295" lon="6.002550004050136">
        <ele>34.032584</ele>
        <time>2026-02-25T18:47:22Z</time>
      </trkpt>
      <trkpt lat="51.313464967533946" lon="6.002081036567688">
        <ele>33.900399</ele>
        <time>2026-02-25T18:47:46Z</time>
      </trkpt>
      <trkpt lat="51.313508972525597" lon="6.001611985266209">
        <ele>33.768214</ele>
        <time>2026-02-25T18:48:10Z</time>
      </trkpt>
      <trkpt lat="51.313777025789022" lon="6.001683985814452">
        <ele>33.646079999999998</ele>
        <time>2026-02-25T18:48:32Z</time>
      </trkpt>
      <trkpt lat="51.313855983316898" lon="6.000902960076928">
        <ele>33.420704000000001</ele>
        <time>2026-02-25T18:49:12Z</time>
      </trkpt>
      <trkpt lat="51.313971988856792" lon="6.000439021736383">
        <ele>33.278345000000002</ele>
        <time>2026-02-25T18:49:38Z</time>
      </trkpt>
      <trkpt lat="51.313981041312218" lon="6.000215979292989">
        <ele>33.214688000000002</ele>
        <time>2026-02-25T18:49:49Z</time>
      </trkpt>
      <trkpt lat="51.31418296135962" lon="5.998904965817928">
        <ele>32.892028000000003</ele>
        <time>2026-02-25T18:50:57Z</time>
      </trkpt>
      <trkpt lat="51.315494980663061" lon="5.999415004625917">
        <ele>33.215443</ele>
        <time>2026-02-25T18:52:46Z</time>
      </trkpt>
      <trkpt lat="51.316146003082395" lon="5.99963896907866">
        <ele>33.433435000000003</ele>
        <time>2026-02-25T18:53:41Z</time>
      </trkpt>
      <trkpt lat="51.316251028329134" lon="5.999579960480332">
        <ele>33.481324999999998</ele>
        <time>2026-02-25T18:53:50Z</time>
      </trkpt>
      <trkpt lat="51.316320011392236" lon="5.999590018764138">
        <ele>33.511139</ele>
        <time>2026-02-25T18:53:55Z</time>
      </trkpt>
      <trkpt lat="51.316710021346807" lon="5.999910039827228">
        <ele>33.699750999999999</ele>
        <time>2026-02-25T18:54:31Z</time>
      </trkpt>
      <trkpt lat="51.316857961937785" lon="6.000031996518374">
        <ele>33.771396000000003</ele>
        <time>2026-02-25T18:54:45Z</time>
      </trkpt>
      <trkpt lat="51.317100031301379" lon="6.000229977071285">
        <ele>33.888362999999998</ele>
        <time>2026-02-25T18:55:07Z</time>
      </trkpt>
      <trkpt lat="51.317764967679977" lon="6.00103497505188">
        <ele>34.106262000000001</ele>
        <time>2026-02-25T18:56:14Z</time>
      </trkpt>
      <trkpt lat="51.31792196072638" lon="6.000841017812491">
        <ele>34.121544999999998</ele>
        <time>2026-02-25T18:56:30Z</time>
      </trkpt>
      <trkpt lat="51.318006031215191" lon="6.000745967030525">
        <ele>34.129469999999998</ele>
        <time>2026-02-25T18:56:38Z</time>
      </trkpt>
      <trkpt lat="51.318581029772758" lon="6.000107014551759">
        <ele>34.183405</ele>
        <time>2026-02-25T18:57:34Z</time>
      </trkpt>
      <trkpt lat="51.318841958418489" lon="5.999677022919059">
        <ele>34.212266</ele>
        <time>2026-02-25T18:58:04Z</time>
      </trkpt>
      <trkpt lat="51.318681025877595" lon="5.999484993517399">
        <ele>34.270006000000002</ele>
        <time>2026-02-25T18:58:20Z</time>
      </trkpt>
      <trkpt lat="51.318917982280254" lon="5.998871019110084">
        <ele>34.412429000000003</ele>
        <time>2026-02-25T18:58:57Z</time>
      </trkpt>
      <trkpt lat="51.318982020020485" lon="5.998704973608255">
        <ele>34.450921999999998</ele>
        <time>2026-02-25T18:59:07Z</time>
      </trkpt>
      <trkpt lat="51.319355014711618" lon="5.99905701354146">
        <ele>34.587665999999999</ele>
        <time>2026-02-25T18:59:42Z</time>
      </trkpt>
      <trkpt lat="51.319335987791419" lon="5.998828019946814">
        <ele>34.633256000000003</ele>
        <time>2026-02-25T18:59:54Z</time>
      </trkpt>
      <trkpt lat="51.319393990561366" lon="5.998664991930127">
        <ele>34.670273000000002</ele>
        <time>2026-02-25T19:00:04Z</time>
      </trkpt>
      <trkpt lat="51.319455010816455" lon="5.998613024130464">
        <ele>34.692098999999999</ele>
        <time>2026-02-25T19:00:09Z</time>
      </trkpt>
      <trkpt lat="51.319546038284898" lon="5.998628027737141">
        <ele>34.720986000000003</ele>
        <time>2026-02-25T19:00:17Z</time>
      </trkpt>
      <trkpt lat="51.319560036063194" lon="5.998587040230632">
        <ele>34.730206000000003</ele>
        <time>2026-02-25T19:00:19Z</time>
      </trkpt>
      <trkpt lat="51.319632958620787" lon="5.998376989737153">
        <ele>34.777630000000002</ele>
        <time>2026-02-25T19:00:31Z</time>
      </trkpt>
      <trkpt lat="51.319647040218115" lon="5.998336002230644">
        <ele>34.782060999999999</ele>
        <time>2026-02-25T19:00:33Z</time>
      </trkpt>
      <trkpt lat="51.319845020771027" lon="5.998503975570202">
        <ele>34.782060999999999</ele>
        <time>2026-02-25T19:00:52Z</time>
      </trkpt>
      <trkpt lat="51.32000301964581" lon="5.998654011636972">
        <ele>34.782060999999999</ele>
        <time>2026-02-25T19:01:06Z</time>
      </trkpt>
      <trkpt lat="51.320105027407408" lon="5.998683013021946">
        <ele>34.782060999999999</ele>
        <time>2026-02-25T19:01:15Z</time>
      </trkpt>
      <trkpt lat="51.320221032947302" lon="5.998809998854995">
        <ele>34.782060999999999</ele>
        <time>2026-02-25T19:01:26Z</time>
      </trkpt>
      <trkpt lat="51.320362016558647" lon="5.99895098246634">
        <ele>34.782060999999999</ele>
        <time>2026-02-25T19:01:39Z</time>
      </trkpt>
      <trkpt lat="51.320406021550298" lon="5.999183999374509">
        <ele>34.782060999999999</ele>
        <time>2026-02-25T19:01:51Z</time>
      </trkpt>
      <trkpt lat="51.320479027926922" lon="5.999220041558147">
        <ele>34.782060999999999</ele>
        <time>2026-02-25T19:01:58Z</time>
      </trkpt>
      <trkpt lat="51.320495959371328" lon="5.99912297911942">
        <ele>34.782060999999999</ele>
        <time>2026-02-25T19:02:03Z</time>
      </trkpt>
      <trkpt lat="51.32056200876832" lon="5.999125996604562">
        <ele>34.782060999999999</ele>
        <time>2026-02-25T19:02:08Z</time>
      </trkpt>
      <trkpt lat="51.320612970739603" lon="5.999060031026602">
        <ele>34.782060999999999</ele>
        <time>2026-02-25T19:02:13Z</time>
      </trkpt>
      <trkpt lat="51.321160979568958" lon="5.999449035152793">
        <ele>34.782060999999999</ele>
        <time>2026-02-25T19:03:02Z</time>
      </trkpt>
    </trkseg>
  </trk>

</gpx>